Time;durP1;ratioP1;P1;durP2;ratioP2;P2;SDS_P1;SDS_P2;PMS_P1;PMS_P2;Temp;Humidity;BMP_temperature;BMP_pressure;BME280_temperature;BME280_humidity;BME280_pressure;Samples;Min_cycle;Max_cycle;Signal;HPM_P1;HPM_P2
2022/10/24 00:01:16;;;;;;;17.20;10.30;;;;;;;10.88;100.00;99380.45;100654;1334;22492;-36
2022/10/24 00:03:42;;;;;;;17.80;11.20;;;;;;;10.88;100.00;99375.32;100546;1342;24465;-36
2022/10/24 00:06:08;;;;;;;19.20;12.70;;;;;;;10.90;100.00;99380.96;100692;1342;25346;-37
2022/10/24 00:08:35;;;;;;;24.90;13.70;;;;;;;10.93;100.00;99384.79;100643;1342;22510;-33
2022/10/24 00:11:00;;;;;;;15.90;11.20;;;;;;;10.91;100.00;99386.14;100683;1342;24475;-34
2022/10/24 00:13:26;;;;;;;19.80;11.90;;;;;;;10.92;100.00;99388.34;100606;1342;23084;-34
2022/10/24 00:15:51;;;;;;;17.10;11.50;;;;;;;10.94;100.00;99392.73;100727;1342;24292;-34
2022/10/24 00:18:17;;;;;;;14.00;10.30;;;;;;;10.96;100.00;99397.87;100670;1340;24546;-37
2022/10/24 00:20:42;;;;;;;;;;;;;;;10.98;100.00;99393.98;100647;1342;23338;-36
2022/10/24 00:23:08;;;;;;;17.10;10.50;;;;;;;11.00;100.00;99391.65;100618;1341;25004;-34
2022/10/24 00:25:33;;;;;;;17.10;13.20;;;;;;;11.03;100.00;99393.22;100620;1334;24424;-34
2022/10/24 00:27:59;;;;;;;24.70;15.30;;;;;;;11.03;100.00;99398.02;100647;1341;22754;-34
2022/10/24 00:30:25;;;;;;;17.40;13.50;;;;;;;11.09;100.00;99396.14;100648;1341;23072;-37
2022/10/24 00:32:51;;;;;;;23.50;12.50;;;;;;;11.10;100.00;99401.57;100439;1345;22748;-41
2022/10/24 00:35:17;;;;;;;9.70;8.50;;;;;;;11.11;100.00;99402.23;100620;1334;22799;-34
2022/10/24 00:37:42;;;;;;;11.50;8.60;;;;;;;11.11;100.00;99404.02;100644;1336;22862;-34
2022/10/24 00:40:09;;;;;;;15.40;11.60;;;;;;;11.10;100.00;99404.46;100645;1342;24463;-38
2022/10/24 00:42:35;;;;;;;17.20;10.90;;;;;;;11.09;100.00;99400.70;100694;1342;23232;-37
2022/10/24 00:45:01;;;;;;;12.30;8.80;;;;;;;11.11;100.00;99396.15;100701;1341;22609;-37
2022/10/24 00:47:27;;;;;;;21.00;12.50;;;;;;;11.09;100.00;99389.13;100632;1334;25254;-34
2022/10/24 00:49:59;;;;;;;16.30;10.70;;;;;;;11.09;100.00;99386.69;100641;1334;24370;-34
2022/10/24 00:52:28;;;;;;;15.20;11.50;;;;;;;11.11;100.00;99382.11;100661;1340;22503;-34
2022/10/24 00:54:54;;;;;;;15.20;11.40;;;;;;;11.12;100.00;99385.54;100645;1342;24453;-41
2022/10/24 00:57:24;;;;;;;10.60;9.50;;;;;;;11.09;100.00;99385.44;100642;1334;24901;-34
2022/10/24 00:59:53;;;;;;;18.50;12.00;;;;;;;11.06;100.00;99391.71;100619;1342;23054;-33
2022/10/24 01:02:20;;;;;;;12.60;9.00;;;;;;;11.07;100.00;99390.55;100645;1342;22512;-35
2022/10/24 01:04:47;;;;;;;22.20;13.40;;;;;;;11.05;100.00;99378.05;100655;1340;24292;-35
2022/10/24 01:07:22;;;;;;;14.40;10.70;;;;;;;11.02;100.00;99368.83;100842;1342;22522;-36
2022/10/24 01:09:55;;;;;;;15.00;11.90;;;;;;;10.99;100.00;99373.86;100833;1342;22518;-32
2022/10/24 01:12:27;;;;;;;13.90;8.90;;;;;;;10.98;100.00;99392.25;100741;1342;24216;-36
2022/10/24 01:15:07;;;;;;;18.10;13.30;;;;;;;10.97;100.00;99396.63;100727;1342;24328;-33
2022/10/24 01:17:39;;;;;;;12.90;9.70;;;;;;;10.92;100.00;99394.95;100452;1342;24481;-33
2022/10/24 01:20:13;;;;;;;13.60;11.00;;;;;;;10.98;100.00;99398.29;100742;1342;24597;-33
2022/10/24 01:22:45;;;;;;;19.00;12.00;;;;;;;11.04;100.00;99406.29;100763;1342;24472;-34
2022/10/24 01:25:16;;;;;;;19.90;13.70;;;;;;;11.03;100.00;99407.70;100529;1342;24300;-36
2022/10/24 01:27:50;;;;;;;16.40;10.90;;;;;;;11.05;100.00;99396.91;100692;1334;23112;-33
2022/10/24 01:30:15;;;;;;;22.90;12.10;;;;;;;11.07;100.00;99400.32;100748;1342;24302;-32
2022/10/24 01:32:48;;;;;;;20.60;12.40;;;;;;;11.08;100.00;99395.39;100601;1342;24248;-34
2022/10/24 01:35:17;;;;;;;21.90;14.20;;;;;;;11.06;100.00;99386.04;100775;1338;25370;-37
2022/10/24 01:37:49;;;;;;;15.60;11.10;;;;;;;11.07;100.00;99384.48;100799;1334;24299;-34
2022/10/24 01:40:19;;;;;;;12.00;7.60;;;;;;;11.13;100.00;99379.72;100727;1342;22511;-36
2022/10/24 01:42:44;;;;;;;21.10;12.20;;;;;;;11.13;100.00;99371.23;100785;1341;24329;-36
2022/10/24 01:45:13;;;;;;;16.50;12.30;;;;;;;11.12;100.00;99369.45;100729;1342;25704;-33
2022/10/24 01:47:42;;;;;;;22.80;10.70;;;;;;;11.17;100.00;99369.30;100755;1341;22527;-33
2022/10/24 01:50:10;;;;;;;17.10;12.10;;;;;;;11.23;100.00;99357.61;100793;1327;24481;-35
2022/10/24 01:52:37;;;;;;;12.60;10.60;;;;;;;11.25;100.00;99343.35;100453;1342;22748;-36
2022/10/24 01:55:03;;;;;;;20.60;10.40;;;;;;;11.23;100.00;99331.84;100721;1342;22510;-33
2022/10/24 01:57:30;;;;;;;14.60;11.30;;;;;;;11.23;100.00;99330.95;100840;1334;22554;-33
2022/10/24 01:59:55;;;;;;;15.90;11.10;;;;;;;11.25;100.00;99338.43;100712;1334;24446;-33
2022/10/24 02:02:31;;;;;;;15.10;11.50;;;;;;;11.29;100.00;99336.46;100747;1327;24264;-36
2022/10/24 02:05:02;;;;;;;17.40;12.90;;;;;;;11.34;100.00;99334.61;100790;1342;23061;-36
2022/10/24 02:07:28;;;;;;;15.80;10.70;;;;;;;11.35;100.00;99329.19;100763;1342;22734;-36
2022/10/24 02:09:57;;;;;;;7.50;6.70;;;;;;;11.36;100.00;99322.75;100722;1334;22747;-36
2022/10/24 02:12:22;;;;;;;17.20;10.70;;;;;;;11.33;100.00;99312.36;100800;1341;24351;-36
2022/10/24 02:14:50;;;;;;;19.80;11.30;;;;;;;11.35;100.00;99310.83;100722;1333;22565;-35
2022/10/24 02:17:16;;;;;;;11.40;8.80;;;;;;;11.34;100.00;99301.77;100766;1341;23132;-35
2022/10/24 02:19:42;;;;;;;17.90;11.60;;;;;;;11.35;100.00;99300.40;100752;1334;23063;-33
2022/10/24 02:22:14;;;;;;;10.80;8.00;;;;;;;11.35;100.00;99292.59;100702;1341;22748;-35
2022/10/24 02:24:44;;;;;;;14.90;11.10;;;;;;;11.33;100.00;99285.55;100742;1342;25374;-35
2022/10/24 02:27:13;;;;;;;15.30;11.30;;;;;;;11.32;100.00;99283.77;100686;1334;24382;-35
2022/10/24 02:29:44;;;;;;;12.20;9.80;;;;;;;11.33;100.00;99297.88;100874;1342;23226;-37
2022/10/24 02:32:15;;;;;;;11.30;8.30;;;;;;;11.44;100.00;99311.96;100745;1342;23060;-34
2022/10/24 02:34:41;;;;;;;15.10;10.70;;;;;;;11.50;100.00;99311.59;100706;1334;22871;-34
2022/10/24 02:37:06;;;;;;;12.70;9.30;;;;;;;11.51;100.00;99307.38;100668;1340;23112;-37
2022/10/24 02:39:32;;;;;;;14.20;10.40;;;;;;;11.43;100.00;99299.02;100444;1342;24578;-36
2022/10/24 02:41:57;;;;;;;16.60;12.20;;;;;;;11.43;100.00;99297.95;100686;1334;24480;-34
2022/10/24 02:44:23;;;;;;;13.20;11.80;;;;;;;11.47;100.00;99300.98;100724;1341;23122;-34
2022/10/24 02:46:50;;;;;;;14.00;10.20;;;;;;;11.54;100.00;99306.73;100735;1342;25393;-35
2022/10/24 02:49:16;;;;;;;11.70;8.20;;;;;;;11.57;100.00;99296.27;100683;1334;24376;-37
2022/10/24 02:51:42;;;;;;;14.80;11.10;;;;;;;11.59;100.00;99288.84;100762;1336;23271;-37
2022/10/24 02:54:09;;;;;;;26.00;11.60;;;;;;;11.62;100.00;99285.50;100696;1334;22855;-35
2022/10/24 02:56:34;;;;;;;12.90;10.00;;;;;;;11.70;100.00;99278.71;100579;1342;24278;-35
2022/10/24 02:59:00;;;;;;;12.00;9.00;;;;;;;11.72;100.00;99275.45;100805;1334;23183;-37
2022/10/24 03:01:25;;;;;;;16.90;11.70;;;;;;;11.71;100.00;99270.48;100693;1336;23225;-35
2022/10/24 03:03:52;;;;;;;;;;;;;;;11.73;100.00;99262.78;100678;1327;24300;-35
2022/10/24 03:06:18;;;;;;;12.50;9.80;;;;;;;11.76;100.00;99254.62;100754;1339;24472;-36
2022/10/24 03:08:43;;;;;;;14.50;8.60;;;;;;;11.78;100.00;99262.20;100687;1334;23184;-36
2022/10/24 03:11:09;;;;;;;16.10;10.70;;;;;;;11.84;100.00;99273.93;100510;1327;22774;-35
2022/10/24 03:13:34;;;;;;;12.40;7.90;;;;;;;11.85;100.00;99286.78;100824;1337;22513;-38
2022/10/24 03:16:00;;;;;;;9.80;8.40;;;;;;;11.86;100.00;99297.95;100679;1339;22780;-34
2022/10/24 03:18:25;;;;;;;10.80;8.20;;;;;;;11.89;100.00;99297.91;100721;1339;22984;-33
2022/10/24 03:20:51;;;;;;;11.70;6.70;;;;;;;11.87;100.00;99290.75;100812;1339;22889;-34
2022/10/24 03:23:18;;;;;;;11.80;7.70;;;;;;;11.88;100.00;99295.30;100507;1341;24379;-33
2022/10/24 03:25:44;;;;;;;11.00;8.50;;;;;;;11.92;100.00;99297.62;100774;1335;24687;-36
2022/10/24 03:28:10;;;;;;;7.00;5.40;;;;;;;12.00;100.00;99294.13;100892;1334;22496;-36
2022/10/24 03:30:35;;;;;;;8.70;6.40;;;;;;;12.05;100.00;99275.17;100757;1339;24351;-36
2022/10/24 03:33:01;;;;;;;10.30;7.40;;;;;;;11.97;100.00;99270.48;100778;1339;24344;-33
2022/10/24 03:35:26;;;;;;;6.80;5.70;;;;;;;11.91;100.00;99268.08;100729;1339;23051;-34
2022/10/24 03:37:51;;;;;;;7.50;6.80;;;;;;;11.96;100.00;99264.38;100722;1339;25390;-33
2022/10/24 03:40:17;;;;;;;10.10;7.50;;;;;;;12.00;100.00;99255.51;100653;1334;23091;-36
2022/10/24 03:42:43;;;;;;;10.50;9.40;;;;;;;11.96;100.00;99260.15;100769;1339;22745;-35
2022/10/24 03:45:08;;;;;;;9.70;7.40;;;;;;;11.97;100.00;99257.00;100628;1334;23131;-36
2022/10/24 03:47:34;;;;;;;4.70;4.20;;;;;;;11.93;100.00;99260.08;100578;1342;22502;-37
2022/10/24 03:50:00;;;;;;;10.90;9.00;;;;;;;11.86;100.00;99264.70;100755;1339;24378;-36
2022/10/24 03:52:26;;;;;;;7.30;6.50;;;;;;;11.84;100.00;99268.02;100707;1335;24439;-36
2022/10/24 03:54:51;;;;;;;10.00;7.80;;;;;;;11.92;100.00;99266.86;100738;1340;22926;-33
2022/10/24 03:57:17;;;;;;;10.80;8.20;;;;;;;11.90;100.00;99264.17;100738;1335;23104;-36
2022/10/24 03:59:42;;;;;;;11.30;8.70;;;;;;;11.88;100.00;99265.41;100778;1334;25235;-37
2022/10/24 04:02:08;;;;;;;8.00;6.20;;;;;;;11.86;100.00;99274.65;100704;1324;26573;-37
2022/10/24 04:04:35;;;;;;;13.70;8.50;;;;;;;11.84;100.00;99266.36;100827;1333;23117;-37
2022/10/24 04:07:00;;;;;;;20.90;7.80;;;;;;;11.81;100.00;99268.13;100716;1339;23261;-35
2022/10/24 04:09:27;;;;;;;8.30;6.90;;;;;;;11.81;100.00;99268.28;100711;1334;25564;-35
2022/10/24 04:11:52;;;;;;;9.50;7.50;;;;;;;11.80;100.00;99262.98;100787;1339;23112;-32
2022/10/24 04:14:19;;;;;;;8.70;7.70;;;;;;;11.77;100.00;99265.81;100779;1339;23086;-35
2022/10/24 04:16:44;;;;;;;8.90;7.50;;;;;;;11.76;100.00;99261.99;100776;1334;24375;-32
2022/10/24 04:19:10;;;;;;;9.60;7.50;;;;;;;11.70;100.00;99253.80;100737;1334;22903;-40
2022/10/24 04:21:36;;;;;;;11.70;8.80;;;;;;;11.67;100.00;99253.52;100765;1326;22712;-36
2022/10/24 04:24:02;;;;;;;11.80;8.30;;;;;;;11.64;100.00;99256.08;100737;1340;23228;-33
2022/10/24 04:26:28;;;;;;;10.90;6.40;;;;;;;11.60;100.00;99262.86;100705;1339;24485;-36
2022/10/24 04:28:53;;;;;;;8.50;6.90;;;;;;;11.53;100.00;99263.77;100682;1340;24378;-37
2022/10/24 04:31:19;;;;;;;8.60;6.90;;;;;;;11.56;100.00;99266.95;100735;1339;22751;-33
2022/10/24 04:33:45;;;;;;;14.10;8.40;;;;;;;11.56;100.00;99269.73;100457;1342;24591;-34
2022/10/24 04:36:11;;;;;;;12.60;7.50;;;;;;;11.54;100.00;99273.91;100545;1342;24295;-36
2022/10/24 04:38:36;;;;;;;5.60;4.80;;;;;;;11.55;100.00;99271.10;100713;1342;22762;-36
2022/10/24 04:41:02;;;;;;;17.30;8.90;;;;;;;11.59;100.00;99270.73;100712;1339;22744;-37
2022/10/24 04:43:28;;;;;;;6.60;5.90;;;;;;;11.60;100.00;99270.92;100724;1339;23269;-36
2022/10/24 04:45:53;;;;;;;13.50;8.30;;;;;;;11.58;100.00;99279.95;100690;1334;22872;-37
2022/10/24 04:48:19;;;;;;;8.60;6.70;;;;;;;11.57;100.00;99276.36;100760;1328;23096;-34
2022/10/24 04:50:45;;;;;;;8.20;7.30;;;;;;;11.57;100.00;99276.14;100670;1342;25367;-37
2022/10/24 04:53:11;;;;;;;8.10;7.00;;;;;;;11.60;100.00;99273.30;100747;1342;25710;-38
2022/10/24 04:55:37;;;;;;;7.90;6.50;;;;;;;11.66;100.00;99265.84;100763;1342;24371;-37
2022/10/24 04:58:03;;;;;;;8.40;7.10;;;;;;;11.70;100.00;99263.98;100847;1342;24359;-37
2022/10/24 05:00:28;;;;;;;6.80;5.30;;;;;;;11.74;100.00;99255.58;100737;1334;24587;-37
2022/10/24 05:02:54;;;;;;;7.30;5.00;;;;;;;11.79;100.00;99249.23;100715;1342;23014;-36
2022/10/24 05:05:21;;;;;;;7.80;6.70;;;;;;;11.81;100.00;99242.63;100782;1334;25348;-35
2022/10/24 05:07:46;;;;;;;8.30;7.10;;;;;;;11.83;100.00;99238.77;100751;1333;22875;-32
2022/10/24 05:10:13;;;;;;;12.40;6.40;;;;;;;11.87;100.00;99246.71;100709;1333;24369;-35
2022/10/24 05:12:38;;;;;;;12.70;5.60;;;;;;;11.86;100.00;99257.48;100747;1343;24269;-37
2022/10/24 05:15:05;;;;;;;6.20;4.20;;;;;;;11.85;100.00;99267.60;100686;1340;22645;-34
2022/10/24 05:17:31;;;;;;;5.60;4.40;;;;;;;11.94;100.00;99271.04;100722;1342;23979;-37
2022/10/24 05:19:57;;;;;;;5.20;3.60;;;;;;;12.02;100.00;99269.29;100779;1335;23223;-35
2022/10/24 05:22:22;;;;;;;7.70;5.10;;;;;;;12.06;100.00;99269.57;100719;1340;23050;-37
2022/10/24 05:24:49;;;;;;;5.80;4.70;;;;;;;12.16;100.00;99271.84;100735;1342;23522;-37
2022/10/24 05:27:15;;;;;;;3.50;2.80;;;;;;;12.22;100.00;99266.64;100678;1342;22761;-32
2022/10/24 05:29:40;;;;;;;5.40;4.50;;;;;;;12.36;100.00;99244.73;100683;1340;26053;-36
2022/10/24 05:32:06;;;;;;;4.70;3.60;;;;;;;12.29;100.00;99223.51;100790;1324;22574;-38
2022/10/24 05:34:32;;;;;;;8.40;5.40;;;;;;;12.17;100.00;99236.71;100717;1340;22499;-38
2022/10/24 05:36:57;;;;;;;6.20;5.60;;;;;;;12.12;100.00;99246.00;100685;1340;22760;-34
2022/10/24 05:39:23;;;;;;;5.50;3.60;;;;;;;12.11;100.00;99250.19;100741;1340;22775;-33
2022/10/24 05:41:48;;;;;;;4.00;3.50;;;;;;;12.10;100.00;99249.33;100681;1334;23320;-34
2022/10/24 05:44:14;;;;;;;5.90;4.50;;;;;;;12.06;100.00;99244.40;100743;1334;24336;-34
2022/10/24 05:46:40;;;;;;;4.80;4.30;;;;;;;12.04;100.00;99243.66;100719;1341;24446;-36
2022/10/24 05:49:05;;;;;;;5.00;4.40;;;;;;;12.03;100.00;99253.19;100712;1340;24329;-37
2022/10/24 05:51:31;;;;;;;4.90;3.10;;;;;;;12.11;100.00;99261.39;100635;1337;22511;-36
2022/10/24 05:53:57;;;;;;;3.80;3.40;;;;;;;12.14;100.00;99257.23;100764;1333;22894;-36
2022/10/24 05:56:24;;;;;;;4.40;3.80;;;;;;;12.09;100.00;99264.69;100751;1342;22662;-36
2022/10/24 05:58:49;;;;;;;4.70;3.20;;;;;;;12.09;100.00;99265.23;100722;1341;22757;-36
2022/10/24 06:01:15;;;;;;;2.90;1.80;;;;;;;12.29;100.00;99255.09;100571;1342;22491;-41
2022/10/24 06:03:41;;;;;;;6.00;4.60;;;;;;;12.34;100.00;99235.42;100818;1342;22508;-36
2022/10/24 06:06:08;;;;;;;4.00;2.70;;;;;;;12.27;100.00;99234.45;100791;1342;22871;-36
2022/10/24 06:08:34;;;;;;;4.50;3.90;;;;;;;12.36;100.00;99229.70;100805;1342;23885;-33
2022/10/24 06:11:00;;;;;;;7.10;3.90;;;;;;;12.46;100.00;99234.48;100761;1341;24308;-33
2022/10/24 06:13:25;;;;;;;3.80;3.00;;;;;;;12.47;100.00;99223.56;100507;1341;371235;-36
2022/10/24 06:15:51;;;;;;;6.40;3.00;;;;;;;12.53;100.00;99214.92;100762;1341;22889;-36
2022/10/24 06:18:16;;;;;;;6.20;3.60;;;;;;;12.63;100.00;99211.41;100683;1340;22761;-36
2022/10/24 06:20:42;;;;;;;2.70;2.40;;;;;;;12.67;100.00;99211.10;100503;1334;22702;-33
2022/10/24 06:23:08;;;;;;;5.20;3.20;;;;;;;12.59;100.00;99216.77;100687;1342;22871;-36
2022/10/24 06:25:34;;;;;;;8.80;3.40;;;;;;;12.66;100.00;99213.75;100754;1342;23525;-36
2022/10/24 06:28:00;;;;;;;5.60;2.70;;;;;;;12.75;100.00;99214.79;100698;1343;24292;-36
2022/10/24 06:30:25;;;;;;;2.10;1.90;;;;;;;12.82;100.00;99220.80;100765;1341;22858;-33
2022/10/24 06:32:51;;;;;;;3.80;2.30;;;;;;;12.90;100.00;99220.80;100712;1335;22888;-35
2022/10/24 06:35:18;;;;;;;3.00;2.70;;;;;;;12.93;100.00;99225.39;100695;1334;22887;-37
2022/10/24 06:37:43;;;;;;;11.30;2.10;;;;;;;12.99;100.00;99222.70;100745;1337;24379;-34
2022/10/24 06:40:09;;;;;;;3.00;2.10;;;;;;;13.04;100.00;99215.58;100418;1343;23247;-37
2022/10/24 06:42:35;;;;;;;4.70;2.10;;;;;;;13.05;100.00;99221.01;100763;1334;22746;-34
2022/10/24 06:45:00;;;;;;;3.80;2.30;;;;;;;13.09;100.00;99226.54;100629;1342;22493;-36
2022/10/24 06:47:26;;;;;;;6.50;3.00;;;;;;;13.14;100.00;99228.21;100486;1336;24300;-37
2022/10/24 06:49:52;;;;;;;13.80;2.80;;;;;;;13.11;100.00;99239.30;100738;1337;23925;-34
2022/10/24 06:52:17;;;;;;;2.70;1.90;;;;;;;13.26;100.00;99237.25;100719;1343;22875;-33
2022/10/24 06:54:43;;;;;;;2.20;1.60;;;;;;;13.29;100.00;99243.52;100487;1342;23212;-37
2022/10/24 06:57:08;;;;;;;2.60;1.60;;;;;;;13.36;100.00;99234.36;100755;1334;22504;-36
2022/10/24 06:59:34;;;;;;;4.60;2.20;;;;;;;13.37;100.00;99240.73;100735;1340;25345;-37
2022/10/24 07:01:59;;;;;;;2.00;1.40;;;;;;;13.42;100.00;99236.91;100713;1345;22994;-38
2022/10/24 07:04:25;;;;;;;1.90;1.50;;;;;;;13.48;100.00;99243.81;100719;1343;22644;-35
2022/10/24 07:06:51;;;;;;;2.90;2.20;;;;;;;13.47;100.00;99240.70;100748;1341;25424;-38
2022/10/24 07:09:17;;;;;;;6.80;2.20;;;;;;;13.57;100.00;99237.02;100469;1342;22509;-35
2022/10/24 07:11:43;;;;;;;2.80;2.10;;;;;;;13.63;100.00;99237.17;100740;1341;22800;-37
2022/10/24 07:14:09;;;;;;;2.90;2.10;;;;;;;13.65;100.00;99236.63;100725;1340;23236;-35
2022/10/24 07:16:35;;;;;;;2.50;1.70;;;;;;;13.61;100.00;99233.25;100741;1337;22881;-33
2022/10/24 07:19:01;;;;;;;2.40;2.00;;;;;;;13.69;100.00;99223.01;100535;1341;24299;-32
2022/10/24 07:21:28;;;;;;;2.50;1.40;;;;;;;13.73;100.00;99222.92;100754;1337;23229;-37
2022/10/24 07:23:54;;;;;;;3.80;2.10;;;;;;;13.79;100.00;99220.87;100723;1335;22492;-34
2022/10/24 07:26:20;;;;;;;3.90;2.10;;;;;;;13.74;100.00;99227.04;100725;1334;22933;-35
2022/10/24 07:28:52;;;;;;;2.70;1.70;;;;;;;13.80;100.00;99226.10;100865;1343;22744;-35
2022/10/24 07:31:18;;;;;;;6.10;1.60;;;;;;;13.80;100.00;99232.27;100832;1340;22510;-38
2022/10/24 07:33:44;;;;;;;2.80;2.20;;;;;;;13.91;100.00;99233.52;100671;1344;22499;-35
2022/10/24 07:36:09;;;;;;;6.10;1.80;;;;;;;13.98;100.00;99239.64;100749;1334;22514;-38
2022/10/24 07:38:36;;;;;;;2.30;1.60;;;;;;;14.07;100.00;99239.84;100750;1343;22507;-38
2022/10/24 07:41:03;;;;;;;4.40;1.50;;;;;;;14.12;100.00;99241.67;100723;1334;24482;-35
2022/10/24 07:43:29;;;;;;;2.50;1.60;;;;;;;14.22;100.00;99234.41;100821;1345;22511;-35
2022/10/24 07:45:54;;;;;;;1.50;1.40;;;;;;;14.35;100.00;99228.11;100484;1332;22904;-34
2022/10/24 07:48:20;;;;;;;14.10;3.30;;;;;;;14.37;100.00;99226.89;100735;1344;24839;-35
2022/10/24 07:50:46;;;;;;;3.20;1.10;;;;;;;14.37;100.00;99229.89;100719;1340;22735;-35
2022/10/24 07:53:11;;;;;;;4.90;1.90;;;;;;;14.48;100.00;99229.30;100761;1341;23103;-37
2022/10/24 07:55:38;;;;;;;5.10;1.20;;;;;;;14.45;100.00;99232.90;100778;1337;23310;-37
2022/10/24 07:58:04;;;;;;;1.30;0.90;;;;;;;14.36;100.00;99235.21;100456;1345;22525;-35
2022/10/24 08:00:30;;;;;;;4.50;1.20;;;;;;;14.36;100.00;99231.14;100781;1345;23879;-34
2022/10/24 08:02:57;;;;;;;2.20;1.30;;;;;;;14.53;100.00;99228.48;100809;1325;24445;-37
2022/10/24 08:05:23;;;;;;;3.90;1.90;;;;;;;14.50;100.00;99231.41;100821;1340;24299;-36
2022/10/24 08:07:49;;;;;;;2.60;1.40;;;;;;;14.56;100.00;99230.52;100804;1338;22871;-34
2022/10/24 08:10:15;;;;;;;4.70;1.70;;;;;;;14.54;100.00;99229.50;100774;1344;22745;-38
2022/10/24 08:12:41;;;;;;;2.20;1.90;;;;;;;14.69;100.00;99229.33;100750;1345;22722;-37
2022/10/24 08:15:07;;;;;;;4.00;2.00;;;;;;;14.88;100.00;99229.65;100465;1343;24596;-37
2022/10/24 08:17:33;;;;;;;3.20;1.70;;;;;;;14.87;100.00;99238.20;100773;1335;23115;-36
2022/10/24 08:19:58;;;;;;;5.60;2.30;;;;;;;14.94;100.00;99248.24;100472;1343;24847;-36
2022/10/24 08:22:24;;;;;;;2.80;1.60;;;;;;;15.05;100.00;99259.40;100682;1334;25633;-37
2022/10/24 08:24:49;;;;;;;3.50;2.00;;;;;;;15.07;100.00;99254.11;100743;1344;23336;-35
2022/10/24 08:27:15;;;;;;;1.90;1.40;;;;;;;15.07;100.00;99256.98;100776;1343;23087;-37
2022/10/24 08:29:41;;;;;;;2.80;1.70;;;;;;;15.18;100.00;99253.01;100783;1334;22796;-35
2022/10/24 08:32:07;;;;;;;6.90;2.00;;;;;;;15.34;100.00;99246.23;100776;1345;22917;-35
2022/10/24 08:34:33;;;;;;;4.20;1.50;;;;;;;15.44;100.00;99247.16;100809;1337;22905;-37
2022/10/24 08:36:58;;;;;;;2.60;1.80;;;;;;;15.52;99.87;99241.80;100756;1330;23118;-35
2022/10/24 08:39:25;;;;;;;3.70;2.00;;;;;;;15.49;99.92;99240.97;100785;1345;22875;-37
2022/10/24 08:41:54;;;;;;;5.20;2.30;;;;;;;15.54;99.96;99232.64;100744;1337;22742;-35
2022/10/24 08:44:26;;;;;;;5.80;1.70;;;;;;;15.72;98.94;99222.15;100768;1340;24250;-37
2022/10/24 08:46:56;;;;;;;3.50;1.70;;;;;;;15.76;97.41;99227.03;100791;1343;22559;-37
2022/10/24 08:49:28;;;;;;;8.80;3.40;;;;;;;15.65;98.01;99232.06;100841;1343;22894;-37
2022/10/24 08:51:57;;;;;;;3.50;1.00;;;;;;;15.82;97.74;99229.73;100796;1345;23229;-36
2022/10/24 08:54:28;;;;;;;2.30;1.40;;;;;;;15.82;97.86;99228.91;100796;1342;22634;-35
2022/10/24 08:56:54;;;;;;;3.30;1.70;;;;;;;15.97;97.13;99224.70;100646;1345;23921;-35
2022/10/24 08:59:20;;;;;;;4.80;1.80;;;;;;;16.08;96.20;99226.15;100805;1337;23108;-37
2022/10/24 09:01:50;;;;;;;5.10;1.40;;;;;;;15.96;95.98;99227.50;100807;1345;23239;-35
2022/10/24 09:04:18;;;;;;;2.70;1.70;;;;;;;16.06;95.71;99227.63;100738;1332;23112;-35
2022/10/24 09:06:43;;;;;;;2.00;0.80;;;;;;;16.02;96.02;99220.02;100763;1326;24526;-37
2022/10/24 09:09:11;;;;;;;3.10;2.30;;;;;;;15.95;96.11;99217.52;100517;1345;22747;-37
2022/10/24 09:11:42;;;;;;;2.70;1.30;;;;;;;15.89;97.13;99219.83;100602;1346;22593;-34
2022/10/24 09:14:11;;;;;;;5.40;1.80;;;;;;;16.04;96.49;99219.11;100775;1343;24333;-37
2022/10/24 09:16:37;;;;;;;4.50;2.10;;;;;;;16.16;94.72;99220.52;100814;1344;22748;-38
2022/10/24 09:19:02;;;;;;;4.00;1.80;;;;;;;15.93;96.61;99220.19;100555;1340;22714;-37
2022/10/24 09:21:28;;;;;;;1.40;0.60;;;;;;;16.06;94.96;99217.60;100744;1341;22885;-35
2022/10/24 09:23:54;;;;;;;3.00;2.00;;;;;;;15.92;96.04;99223.95;100739;1341;24359;-35
2022/10/24 09:26:24;;;;;;;2.70;1.10;;;;;;;16.05;95.99;99220.84;100803;1334;22504;-35
2022/10/24 09:28:49;;;;;;;2.40;1.30;;;;;;;16.19;94.67;99222.61;100814;1344;23123;-34
2022/10/24 09:31:17;;;;;;;6.50;1.50;;;;;;;16.22;94.99;99225.98;100735;1341;22884;-35
2022/10/24 09:33:43;;;;;;;3.50;1.40;;;;;;;16.23;95.76;99226.96;100827;1337;25238;-33
2022/10/24 09:36:11;;;;;;;2.20;1.30;;;;;;;16.37;94.27;99217.73;100668;1345;24296;-35
2022/10/24 09:38:38;;;;;;;2.00;1.10;;;;;;;16.29;94.62;99227.27;100799;1341;22763;-35
2022/10/24 09:41:12;;;;;;;4.40;1.70;;;;;;;16.24;95.19;99231.48;100897;1339;22718;-35
2022/10/24 09:43:42;;;;;;;2.10;1.30;;;;;;;16.25;96.29;99234.33;100851;1339;22748;-35
2022/10/24 09:46:11;;;;;;;3.10;1.10;;;;;;;16.38;95.61;99230.92;100745;1337;22884;-38
2022/10/24 09:48:44;;;;;;;8.00;2.00;;;;;;;16.49;96.06;99234.58;100606;1345;23120;-37
2022/10/24 09:51:16;;;;;;;3.30;1.90;;;;;;;16.60;96.76;99234.26;100771;1345;22594;-35
2022/10/24 09:53:56;;;;;;;3.00;2.70;;;;;;;16.76;96.41;99232.98;100815;1345;22524;-36
2022/10/24 09:56:26;;;;;;;8.90;3.30;;;;;;;16.93;96.03;99239.06;100710;1333;24587;-37
2022/10/24 09:58:52;;;;;;;8.70;2.00;;;;;;;17.01;96.35;99243.84;100702;1345;25280;-34
2022/10/24 10:01:17;;;;;;;;;;;;;;;17.15;94.89;99236.92;100809;1343;23087;-34
2022/10/24 10:03:43;;;;;;;6.70;2.30;;;;;;;17.38;93.50;99236.91;100571;1346;24343;-36
2022/10/24 10:06:16;;;;;;;4.20;2.10;;;;;;;17.71;93.26;99237.75;100738;1345;24309;-36
2022/10/24 10:08:48;;;;;;;1.50;0.80;;;;;;;18.02;90.95;99227.25;100752;1345;22627;-37
2022/10/24 10:11:13;;;;;;;5.80;2.80;;;;;;;18.27;90.47;99235.93;100757;1331;24356;-37
2022/10/24 10:13:44;;;;;;;3.90;1.70;;;;;;;18.64;88.10;99230.05;100717;1342;23912;-34
2022/10/24 10:16:20;;;;;;;3.60;1.80;;;;;;;18.84;86.09;99226.45;100757;1340;24323;-33
2022/10/24 10:18:47;;;;;;;2.10;1.40;;;;;;;19.13;81.60;99227.91;100783;1340;23240;-37
2022/10/24 10:21:15;;;;;;;4.40;1.50;;;;;;;19.20;80.25;99220.20;100787;1340;22754;-37
2022/10/24 10:23:43;;;;;;;3.70;1.30;;;;;;;18.99;79.43;99219.33;100644;1340;24370;-36
2022/10/24 10:26:13;;;;;;;2.60;1.70;;;;;;;19.03;80.71;99227.92;100590;1342;24380;-36
2022/10/24 10:28:45;;;;;;;2.80;1.00;;;;;;;19.45;79.73;99227.95;100769;1339;23124;-36
2022/10/24 10:31:11;;;;;;;4.30;1.40;;;;;;;19.59;77.76;99228.84;100668;1343;24845;-36
2022/10/24 10:33:44;;;;;;;2.90;1.40;;;;;;;19.78;75.67;99229.02;100756;1339;25567;-37
2022/10/24 10:36:12;;;;;;;8.00;1.10;;;;;;;20.03;74.62;99229.29;100887;1340;22729;-35
2022/10/24 10:38:45;;;;;;;7.30;0.90;;;;;;;20.10;73.33;99227.09;100774;1340;24359;-36
2022/10/24 10:41:20;;;;;;;14.10;1.80;;;;;;;20.03;73.05;99224.39;100794;1340;22560;-37
2022/10/24 10:43:55;;;;;;;1.10;0.70;;;;;;;20.04;71.68;99222.88;100678;1346;25390;-36
2022/10/24 10:46:26;;;;;;;5.60;1.30;;;;;;;19.95;72.58;99222.42;100779;1342;24045;-34
2022/10/24 10:48:59;;;;;;;10.00;1.00;;;;;;;20.32;71.06;99217.42;100704;1338;25327;-34
2022/10/24 10:51:31;;;;;;;2.10;0.90;;;;;;;20.00;70.97;99216.61;100805;1342;22517;-35
2022/10/24 10:54:01;;;;;;;1.70;1.40;;;;;;;19.87;71.16;99213.70;100819;1339;24070;-33
2022/10/24 10:56:41;;;;;;;1.70;0.50;;;;;;;19.60;72.13;99210.16;100717;1339;23087;-34
2022/10/24 10:59:18;;;;;;;5.30;1.00;;;;;;;19.78;72.28;99210.86;100497;1345;25278;-35
2022/10/24 11:01:50;;;;;;;4.40;1.10;;;;;;;20.25;71.44;99205.98;100726;1345;25322;-38
2022/10/24 11:04:31;;;;;;;2.50;0.50;;;;;;;20.41;71.32;99204.52;100809;1324;24299;-38
2022/10/24 11:07:06;;;;;;;2.80;0.70;;;;;;;21.05;69.85;99203.29;100568;1339;22846;-38
2022/10/24 11:09:38;;;;;;;1.60;0.70;;;;;;;21.24;67.56;99202.45;100589;1337;24311;-36
2022/10/24 11:12:09;;;;;;;1.40;0.60;;;;;;;21.59;65.60;99204.02;100510;1341;24481;-36
2022/10/24 11:14:40;;;;;;;3.10;1.40;;;;;;;21.85;63.83;99198.33;100758;1339;22516;-36